Marla, Australia
Current Conditions -  °F | °C
As of 12:00 AM on Friday 31 Oct 2014 (Local Time) from YCBP Reporting Station
Clear Clear  
Wind Chill: 77°   Ceiling: Unl
Heat Index: 79°   Visibility: NA
Dew Point: 55°   Wind: 16mph
Humidity: 47%   Direction: 280°W
Pressure: 29.85"   Gusts: NA
Location:  27.31°S, 133.62°E
Report Text: YCBP 301400Z AUTO 28014KT //// // NCD 25/13 Q1011
Loading
Personal Weather Stations






























Interactive Weather Map
Tropical Storm Tracking
New forecast layout! Learn more

10-Day Weather Forecast

Advertisements
Track Severe Weather on mobile